Time;durP1;ratioP1;P1;durP2;ratioP2;P2;SDS_P1;SDS_P2;PMS_P1;PMS_P2;Temp;Humidity;BMP_temperature;BMP_pressure;BME280_temperature;BME280_humidity;BME280_pressure;Samples;Min_cycle;Max_cycle;Signal;HPM_P1;HPM_P2
2022/10/07 00:00:34;;;;;;;;;;;;;;;19.32;52.40;102660.09;5024647;28;19944;-61
2022/10/07 00:02:59;;;;;;;;;;;;;;;19.32;52.28;102665.50;5024620;28;19914;-61
2022/10/07 00:05:24;;;;;;;;;;;;;;;19.32;52.39;102656.56;5024043;28;19917;-60
2022/10/07 00:07:49;;;;;;;;;;;;;;;19.31;52.55;102662.94;5024310;28;20374;-61
2022/10/07 00:10:14;;;;;;;;;;;;;;;19.30;52.55;102653.16;5024007;28;19920;-61
2022/10/07 00:12:39;;;;;;;;;;;;;;;19.30;52.50;102651.31;5007040;28;19931;-61
2022/10/07 00:15:05;;;;;;;;;;;;;;;19.29;52.37;102652.28;5024527;28;19937;-61
2022/10/07 00:17:30;;;;;;;;;;;;;;;19.28;52.45;102655.09;5024248;28;19910;-61
2022/10/07 00:19:56;;;;;;;;;;;;;;;19.28;52.37;102655.09;5024467;28;20000;-61
2022/10/07 00:22:22;;;;;;;;;;;;;;;19.27;52.22;102646.16;5024308;28;19921;-61
2022/10/07 00:24:47;;;;;;;;;;;;;;;19.27;52.55;102648.84;5024150;28;19909;-59
2022/10/07 00:27:12;;;;;;;;;;;;;;;19.27;52.24;102643.47;5024290;28;19909;-61
2022/10/07 00:29:37;;;;;;;;;;;;;;;19.25;52.41;102650.84;5024093;28;19997;-60
2022/10/07 00:32:03;;;;;;;;;;;;;;;19.25;52.37;102636.50;5024335;28;19909;-61
2022/10/07 00:34:28;;;;;;;;;;;;;;;19.23;52.50;102629.38;5024170;28;20063;-58
2022/10/07 00:36:53;;;;;;;;;;;;;;;19.23;52.18;102621.28;5023913;28;19913;-61
2022/10/07 00:39:18;;;;;;;;;;;;;;;19.23;52.08;102620.44;5024105;28;19948;-60
2022/10/07 00:41:50;;;;;;;;;;;;;;;19.23;52.41;102620.44;5023795;28;19968;-61
2022/10/07 00:44:30;;;;;;;;;;;;;;;19.22;52.19;102613.34;5024275;28;19909;-61
2022/10/07 00:46:58;;;;;;;;;;;;;;;19.22;52.35;102621.44;5024306;28;19912;-60
2022/10/07 00:49:25;;;;;;;;;;;;;;;19.20;52.41;102618.88;5006530;28;19936;-61
2022/10/07 00:51:50;;;;;;;;;;;;;;;19.20;52.36;102615.31;5006475;28;19917;-60
2022/10/07 00:54:15;;;;;;;;;;;;;;;19.19;52.36;102616.28;5024245;28;20543;-60
2022/10/07 00:56:41;;;;;;;;;;;;;;;19.19;52.21;102616.28;5006051;28;19963;-61
2022/10/07 00:59:07;;;;;;;;;;;;;;;19.18;52.35;102604.66;5023604;28;19948;-61
2022/10/07 01:01:32;;;;;;;;;;;;;;;19.18;52.09;102598.41;5006405;28;19917;-60
2022/10/07 01:03:57;;;;;;;;;;;;;;;19.17;52.23;102600.25;5023946;28;19933;-60
2022/10/07 01:06:22;;;;;;;;;;;;;;;19.17;52.22;102604.78;5006011;28;19936;-61
2022/10/07 01:08:47;;;;;;;;;;;;;;;19.16;52.19;102595.84;5023446;28;19920;-61
2022/10/07 01:11:33;;;;;;;;;;;;;;;19.16;52.45;102600.38;5006034;28;19921;-61
2022/10/07 01:14:18;;;;;;;;;;;;;;;19.15;52.12;102594.09;5012602;28;19910;-61
2022/10/07 01:16:52;;;;;;;;;;;;;;;19.14;52.57;102592.41;5004992;28;20502;-61
2022/10/07 01:19:23;;;;;;;;;;;;;;;19.14;52.40;102586.16;5008204;28;20008;-61
2022/10/07 01:22:10;;;;;;;;;;;;;;;19.13;52.31;102576.38;5007923;28;19949;-61
2022/10/07 01:24:42;;;;;;;;;;;;;;;19.12;52.42;102578.22;5007156;28;20366;-60
2022/10/07 01:27:20;;;;;;;;;;;;;;;19.12;52.40;102582.75;4990395;28;19913;-61
2022/10/07 01:30:00;;;;;;;;;;;;;;;19.11;52.21;102570.22;5000140;28;19940;-58
2022/10/07 01:32:35;;;;;;;;;;;;;;;19.11;52.21;102575.63;5027677;28;19914;-61
2022/10/07 01:35:01;;;;;;;;;;;;;;;19.10;52.36;102568.53;5027492;28;19909;-61
2022/10/07 01:37:27;;;;;;;;;;;;;;;19.10;52.41;102569.38;5009765;28;19933;-61
2022/10/07 01:39:54;;;;;;;;;;;;;;;18.83;52.31;102515.97;5026628;28;19987;-61
2022/10/07 01:42:20;;;;;;;;;;;;;;;19.09;52.24;102558.75;5009893;28;20283;-61
2022/10/07 01:44:46;;;;;;;;;;;;;;;19.07;52.24;102550.75;5009877;28;20369;-61
2022/10/07 01:47:11;;;;;;;;;;;;;;;19.08;52.37;102548.94;5009928;28;19925;-60
2022/10/07 01:49:37;;;;;;;;;;;;;;;19.07;52.29;102550.75;5026952;28;19910;-60
2022/10/07 01:52:11;;;;;;;;;;;;;;;19.06;52.25;102540.97;5027051;28;19914;-61
2022/10/07 01:54:37;;;;;;;;;;;;;;;19.06;52.34;102534.72;5027136;28;19920;-61
2022/10/07 01:57:13;;;;;;;;;;;;;;;19.05;52.13;102533.03;5026757;28;20425;-61
2022/10/07 01:59:44;;;;;;;;;;;;;;;19.05;52.27;102528.47;5019477;28;19967;-60
2022/10/07 02:02:09;;;;;;;;;;;;;;;19.03;52.20;102519.69;5027094;28;20003;-60
2022/10/07 02:04:41;;;;;;;;;;;;;;;19.03;52.36;102516.09;5027003;28;20303;-61
2022/10/07 02:07:25;;;;;;;;;;;;;;;19.02;52.13;102509.88;5009397;28;19963;-61
2022/10/07 02:10:09;;;;;;;;;;;;;;;19.02;52.23;102503.63;5026363;28;19931;-61
2022/10/07 02:12:34;;;;;;;;;;;;;;;19.01;52.34;102504.63;5026880;28;19932;-61
2022/10/07 02:15:02;;;;;;;;;;;;;;;19.00;52.46;102498.38;5026587;28;19937;-61
2022/10/07 02:17:28;;;;;;;;;;;;;;;19.01;52.22;102493.84;5025597;28;19910;-61
2022/10/07 02:19:55;;;;;;;;;;;;;;;19.00;52.29;102492.13;5025142;28;19951;-61
2022/10/07 02:22:21;;;;;;;;;;;;;;;18.98;52.09;102490.41;5024834;28;19924;-61
2022/10/07 02:24:46;;;;;;;;;;;;;;;18.98;52.18;102497.63;5009095;28;19910;-60
2022/10/07 02:27:12;;;;;;;;;;;;;;;18.98;52.26;102492.25;5008568;28;19917;-61
2022/10/07 02:29:38;;;;;;;;;;;;;;;18.96;52.40;102487.00;5008512;28;19920;-61
2022/10/07 02:32:05;;;;;;;;;;;;;;;18.97;52.26;102485.16;5026498;28;19976;-61
2022/10/07 02:34:30;;;;;;;;;;;;;;;18.96;52.32;102489.69;5008771;28;20521;-61
2022/10/07 02:36:57;;;;;;;;;;;;;;;18.96;52.32;102487.00;5026305;28;19916;-60
2022/10/07 02:39:22;;;;;;;;;;;;;;;18.95;52.05;102482.59;5008731;28;19917;-61
2022/10/07 02:41:52;;;;;;;;;;;;;;;18.94;52.35;102478.16;5025797;28;20313;-60
2022/10/07 02:44:25;;;;;;;;;;;;;;;18.94;52.25;102475.47;5008902;28;19932;-60
2022/10/07 02:46:52;;;;;;;;;;;;;;;18.94;52.31;102470.06;5008976;28;19913;-61
2022/10/07 02:49:18;;;;;;;;;;;;;;;18.93;52.07;102465.69;5025981;28;19909;-60
2022/10/07 02:51:45;;;;;;;;;;;;;;;18.93;52.02;102470.22;5025855;28;19929;-60
2022/10/07 02:54:11;;;;;;;;;;;;;;;18.92;52.22;102455.91;5008549;28;19913;-60
2022/10/07 02:56:36;;;;;;;;;;;;;;;18.91;52.22;102462.28;4991933;28;19964;-61
2022/10/07 02:59:02;;;;;;;;;;;;;;;18.90;52.25;102460.56;5025468;28;19909;-61
2022/10/07 03:01:29;;;;;;;;;;;;;;;18.90;52.09;102455.19;5008155;28;19910;-60
2022/10/07 03:03:55;;;;;;;;;;;;;;;18.89;52.24;102450.75;5008176;28;19909;-61
2022/10/07 03:06:21;;;;;;;;;;;;;;;18.90;52.14;102439.00;5008403;28;20562;-61
2022/10/07 03:08:46;;;;;;;;;;;;;;;18.89;52.01;102439.13;5007950;28;20394;-61
2022/10/07 03:11:12;;;;;;;;;;;;;;;18.88;52.39;102446.38;5025244;28;19977;-60
2022/10/07 03:13:37;;;;;;;;;;;;;;;18.87;52.39;102441.13;5025833;28;20476;-61
2022/10/07 03:16:03;;;;;;;;;;;;;;;18.87;52.25;102443.81;5025728;28;19916;-61
2022/10/07 03:18:29;;;;;;;;;;;;;;;18.86;52.19;102434.00;5025324;28;19916;-61
2022/10/07 03:20:54;;;;;;;;;;;;;;;18.86;52.29;102440.25;5025710;28;19909;-61
2022/10/07 03:23:20;;;;;;;;;;;;;;;18.85;51.95;102429.59;5025171;28;19924;-61
2022/10/07 03:25:50;;;;;;;;;;;;;;;18.85;52.00;102434.97;5025121;28;19984;-61
2022/10/07 03:28:16;;;;;;;;;;;;;;;18.83;52.06;102427.03;5024927;28;19909;-61
2022/10/07 03:30:41;;;;;;;;;;;;;;;18.84;52.10;102426.06;5025330;28;19939;-61
2022/10/07 03:33:07;;;;;;;;;;;;;;;18.83;52.22;102426.19;5017824;28;19913;-61
2022/10/07 03:35:32;;;;;;;;;;;;;;;18.82;51.99;102425.34;5004894;28;19914;-60
2022/10/07 03:37:57;;;;;;;;;;;;;;;18.82;52.21;102422.66;5024882;28;19917;-61
2022/10/07 03:40:22;;;;;;;;;;;;;;;18.82;52.38;102419.06;5023691;28;19924;-61
2022/10/07 03:42:48;;;;;;;;;;;;;;;18.81;52.08;102418.22;5025315;28;19914;-61
2022/10/07 03:45:14;;;;;;;;;;;;;;;18.81;52.01;102417.38;5024827;28;19917;-60
2022/10/07 03:47:39;;;;;;;;;;;;;;;18.80;52.20;102411.13;5025139;28;19913;-61
2022/10/07 03:50:04;;;;;;;;;;;;;;;18.80;52.10;102410.28;5024195;28;19923;-60
2022/10/07 03:52:30;;;;;;;;;;;;;;;18.79;51.99;102403.19;5025143;28;19909;-61
2022/10/07 03:54:55;;;;;;;;;;;;;;;18.78;52.15;102410.41;5024708;28;19947;-60
2022/10/07 04:00:04;;;;;;;;;;;;;;;18.78;52.28;102414.97;5024722;28;19936;-60
2022/10/07 04:02:29;;;;;;;;;;;;;;;18.76;52.03;102412.38;5024750;28;20362;-60
2022/10/07 04:04:54;;;;;;;;;;;;;;;18.77;51.86;102407.84;5014705;28;19910;-61
2022/10/07 04:07:20;;;;;;;;;;;;;;;18.76;52.00;102419.59;5024262;28;19913;-61
2022/10/07 04:09:46;;;;;;;;;;;;;;;18.76;52.09;102398.91;5021835;28;19944;-62
2022/10/07 04:12:11;;;;;;;;;;;;;;;18.75;51.86;102397.19;5016477;28;19921;-62
2022/10/07 04:14:37;;;;;;;;;;;;;;;18.75;51.95;102402.59;5023932;28;19952;-61
2022/10/07 04:17:03;;;;;;;;;;;;;;;18.75;51.93;102399.03;5021666;28;19932;-62
2022/10/07 04:19:28;;;;;;;;;;;;;;;18.73;51.95;102394.66;5022930;28;19909;-62
2022/10/07 04:21:54;;;;;;;;;;;;;;;18.72;51.97;102392.91;5023865;28;19913;-62
2022/10/07 04:24:20;;;;;;;;;;;;;;;18.73;51.95;102386.56;5023771;28;19917;-62
2022/10/07 04:26:45;;;;;;;;;;;;;;;18.73;52.19;102393.78;5023597;28;19909;-61
2022/10/07 04:29:10;;;;;;;;;;;;;;;18.72;52.25;102392.91;5023772;28;20456;-62
2022/10/07 04:31:36;;;;;;;;;;;;;;;18.72;52.12;102387.53;5024117;28;19921;-62
2022/10/07 04:34:01;;;;;;;;;;;;;;;18.72;51.97;102392.06;5023465;28;19916;-62
2022/10/07 04:36:26;;;;;;;;;;;;;;;18.73;52.00;102388.38;5023535;28;20011;-61
2022/10/07 04:38:51;;;;;;;;;;;;;;;18.72;51.83;102386.69;5022944;28;19909;-61
2022/10/07 04:41:17;;;;;;;;;;;;;;;18.71;52.39;102383.13;5023419;28;19917;-62
2022/10/07 04:43:42;;;;;;;;;;;;;;;18.71;52.29;102385.81;5023970;28;19959;-62
2022/10/07 04:46:12;;;;;;;;;;;;;;;18.71;52.10;102380.44;5023298;28;19932;-62
2022/10/07 04:48:38;;;;;;;;;;;;;;;18.71;52.22;102382.28;5023298;28;19909;-61
2022/10/07 04:51:04;;;;;;;;;;;;;;;18.70;52.24;102373.34;5023333;28;19971;-61
2022/10/07 04:53:30;;;;;;;;;;;;;;;18.71;52.16;102377.75;5023580;28;19948;-61
2022/10/07 04:55:56;;;;;;;;;;;;;;;18.71;52.23;102372.34;5023449;28;19914;-61
2022/10/07 04:58:21;;;;;;;;;;;;;;;18.70;52.27;102370.66;5022896;28;19932;-62
2022/10/07 05:00:50;;;;;;;;;;;;;;;18.70;52.46;102367.13;5022684;28;19921;-61
2022/10/07 05:03:16;;;;;;;;;;;;;;;18.71;52.26;102371.50;5005094;28;19959;-61
2022/10/07 05:05:42;;;;;;;;;;;;;;;18.71;52.71;102380.44;5022677;28;19914;-61
2022/10/07 05:08:07;;;;;;;;;;;;;;;18.69;52.22;102368.97;5020578;28;19910;-61
2022/10/07 05:10:36;;;;;;;;;;;;;;;18.69;52.67;102376.13;5022924;28;19964;-62
2022/10/07 05:13:02;;;;;;;;;;;;;;;18.70;52.37;102372.50;5023175;28;19981;-62
2022/10/07 05:15:27;;;;;;;;;;;;;;;18.70;52.50;102361.72;5022894;28;19935;-62
2022/10/07 05:17:54;;;;;;;;;;;;;;;18.70;52.63;102361.72;5021955;28;19952;-61
2022/10/07 05:20:20;;;;;;;;;;;;;;;18.70;52.67;102361.72;5022803;28;19913;-61
2022/10/07 05:22:45;;;;;;;;;;;;;;;18.68;52.82;102353.72;5022837;28;19971;-60
2022/10/07 05:25:10;;;;;;;;;;;;;;;18.68;52.76;102358.25;5023016;28;19945;-60
2022/10/07 05:27:35;;;;;;;;;;;;;;;18.68;52.76;102356.41;5023178;28;19959;-60
2022/10/07 05:30:01;;;;;;;;;;;;;;;18.66;52.77;102358.41;5022775;28;19913;-60
2022/10/07 05:32:26;;;;;;;;;;;;;;;18.65;52.79;102359.41;5023330;28;19909;-61
2022/10/07 05:34:51;;;;;;;;;;;;;;;18.65;52.98;102358.53;5017560;28;19973;-61
2022/10/07 05:37:17;;;;;;;;;;;;;;;18.64;52.80;102352.28;5003585;28;19909;-60
2022/10/07 05:39:42;;;;;;;;;;;;;;;18.65;52.71;102353.16;5024747;28;19949;-61
2022/10/07 05:42:08;;;;;;;;;;;;;;;18.64;52.77;102349.56;5022879;28;19963;-58
2022/10/07 05:44:33;;;;;;;;;;;;;;;18.64;53.06;102346.03;5023061;28;19978;-60
2022/10/07 05:46:58;;;;;;;;;;;;;;;18.64;52.73;102346.03;5023028;28;19948;-60
2022/10/07 05:49:23;;;;;;;;;;;;;;;18.64;53.25;102346.03;5022640;28;20924;-60
2022/10/07 05:51:50;;;;;;;;;;;;;;;18.63;52.99;102334.41;5022565;28;19921;-60
2022/10/07 05:54:15;;;;;;;;;;;;;;;18.64;52.97;102338.81;5023201;28;19948;-60
2022/10/07 05:56:40;;;;;;;;;;;;;;;18.64;53.03;102333.41;5024050;28;19920;-60
2022/10/07 05:59:06;;;;;;;;;;;;;;;18.65;52.97;102337.00;5021948;28;19950;-61
2022/10/07 06:01:31;;;;;;;;;;;;;;;18.65;53.07;102335.16;5023014;28;20306;-60
2022/10/07 06:03:57;;;;;;;;;;;;;;;18.66;53.11;102333.31;5025121;28;20329;-60
2022/10/07 06:06:23;;;;;;;;;;;;;;;18.66;53.12;102327.91;5025954;28;19913;-61
2022/10/07 06:08:49;;;;;;;;;;;;;;;18.66;53.13;102327.91;5016079;28;19914;-60
2022/10/07 06:13:58;;;;;;;;;;;;;;;18.65;52.82;102335.16;5017503;28;19962;-60
2022/10/07 06:16:24;;;;;;;;;;;;;;;18.65;53.03;102329.75;5004715;28;19957;-61
2022/10/07 06:18:51;;;;;;;;;;;;;;;18.65;52.66;102337.84;5006871;28;19914;-61
2022/10/07 06:21:16;;;;;;;;;;;;;;;18.65;52.98;102332.47;5005347;28;19910;-62
2022/10/07 06:23:42;;;;;;;;;;;;;;;18.65;52.82;102324.38;5006628;28;19968;-61
2022/10/07 06:26:08;;;;;;;;;;;;;;;18.65;52.77;102335.16;5015231;28;19935;-61
2022/10/07 06:28:35;;;;;;;;;;;;;;;18.65;52.85;102340.53;5008585;28;19909;-62
2022/10/07 06:31:02;;;;;;;;;;;;;;;18.64;52.87;102336.09;5026538;28;19913;-61
2022/10/07 06:33:27;;;;;;;;;;;;;;;18.65;52.65;102340.53;5026460;28;19909;-61
2022/10/07 06:35:55;;;;;;;;;;;;;;;18.64;52.74;102341.50;5026372;28;19959;-61
2022/10/07 06:38:21;;;;;;;;;;;;;;;18.65;52.59;102345.06;5026173;28;19916;-58
2022/10/07 06:41:15;;;;;;;;;;;;;;;18.63;52.72;102347.03;5025566;28;19945;-60
2022/10/07 06:43:40;;;;;;;;;;;;;;;18.62;52.32;102343.50;5013041;28;19914;-59
2022/10/07 06:46:06;;;;;;;;;;;;;;;18.62;52.32;102346.19;5025661;28;19909;-59
2022/10/07 06:48:33;;;;;;;;;;;;;;;18.62;52.12;102343.50;5025870;28;19964;-59
2022/10/07 06:50:58;;;;;;;;;;;;;;;18.61;51.97;102344.47;5025746;28;19936;-59
2022/10/07 06:53:24;;;;;;;;;;;;;;;18.61;51.82;102338.25;5008399;28;19913;-59
2022/10/07 06:55:58;;;;;;;;;;;;;;;18.60;51.79;102340.06;5025011;28;19913;-59
2022/10/07 06:58:24;;;;;;;;;;;;;;;18.59;51.77;102338.34;5013333;28;19920;-59
2022/10/07 07:00:50;;;;;;;;;;;;;;;18.59;50.93;102341.03;5005410;28;20025;-60
2022/10/07 07:03:15;;;;;;;;;;;;;;;18.57;50.56;102345.72;5006420;28;19913;-59
2022/10/07 07:05:41;;;;;;;;;;;;;;;18.58;50.86;102349.28;5006170;28;19910;-59
2022/10/07 07:08:06;;;;;;;;;;;;;;;18.56;51.00;102344.00;5022514;28;19913;-59
2022/10/07 07:10:35;;;;;;;;;;;;;;;18.56;50.69;102335.06;5025006;28;19921;-59
2022/10/07 07:13:01;;;;;;;;;;;;;;;18.56;50.79;102338.59;5008165;28;20428;-59
2022/10/07 07:15:26;;;;;;;;;;;;;;;18.57;50.58;102343.03;5024508;28;19986;-59
2022/10/07 07:17:51;;;;;;;;;;;;;;;18.57;50.78;102328.72;5025655;28;19910;-60
2022/10/07 07:20:16;;;;;;;;;;;;;;;18.56;50.66;102338.59;5025266;28;19909;-60
2022/10/07 07:22:42;;;;;;;;;;;;;;;18.57;50.72;102343.03;5025383;28;19929;-59
2022/10/07 07:25:10;;;;;;;;;;;;;;;18.58;50.83;102335.81;5025304;28;19910;-60
2022/10/07 07:27:35;;;;;;;;;;;;;;;18.58;50.78;102331.25;5024685;28;19913;-60
2022/10/07 07:30:01;;;;;;;;;;;;;;;18.59;50.58;102332.13;5025157;28;19972;-59
2022/10/07 07:32:26;;;;;;;;;;;;;;;18.59;50.71;102332.13;5025251;28;19992;-59
2022/10/07 07:34:54;;;;;;;;;;;;;;;18.60;50.65;102337.34;5023067;28;20298;-60
2022/10/07 07:37:19;;;;;;;;;;;;;;;18.61;50.95;102333.69;5018420;28;20033;-60
2022/10/07 07:39:44;;;;;;;;;;;;;;;18.63;50.77;102328.16;5018688;28;19934;-60
2022/10/07 07:42:10;;;;;;;;;;;;;;;18.65;51.34;102329.75;5004656;28;19921;-60
2022/10/07 07:44:36;;;;;;;;;;;;;;;18.66;51.25;102334.16;5004830;28;19913;-60
2022/10/07 07:47:01;;;;;;;;;;;;;;;18.69;51.52;102330.31;5018444;28;19917;-60
2022/10/07 07:49:30;;;;;;;;;;;;;;;18.72;51.64;102335.50;5004653;28;19913;-60
2022/10/07 07:51:55;;;;;;;;;;;;;;;18.73;51.34;102338.06;5004187;28;19920;-60
2022/10/07 07:54:21;;;;;;;;;;;;;;;18.76;51.51;102328.84;5004871;28;19961;-62
2022/10/07 07:56:46;;;;;;;;;;;;;;;18.77;51.51;102327.84;5003961;28;19914;-59
2022/10/07 07:59:12;;;;;;;;;;;;;;;18.80;51.43;102332.97;5004247;28;19916;-61
2022/10/07 08:01:37;;;;;;;;;;;;;;;18.83;51.41;102326.50;5003684;28;19910;-61
2022/10/07 08:04:03;;;;;;;;;;;;;;;18.85;51.65;102321.81;5002007;28;19988;-60
2022/10/07 08:06:30;;;;;;;;;;;;;;;18.88;51.51;102327.78;5002627;28;19933;-60
2022/10/07 08:08:58;;;;;;;;;;;;;;;18.91;51.08;102326.69;5004141;28;20004;-60
2022/10/07 08:11:23;;;;;;;;;;;;;;;18.94;51.37;102315.59;5003916;28;20263;-60
2022/10/07 08:13:48;;;;;;;;;;;;;;;18.97;51.25;102312.66;5008777;28;19916;-60
2022/10/07 08:16:15;;;;;;;;;;;;;;;18.97;51.24;102310.81;5023682;28;19909;-60
2022/10/07 08:18:40;;;;;;;;;;;;;;;18.98;51.54;102301.72;5005576;28;20413;-60
2022/10/07 08:21:06;;;;;;;;;;;;;;;18.99;51.32;102302.59;5004087;28;19914;-61
2022/10/07 08:23:32;;;;;;;;;;;;;;;18.99;51.27;102297.22;5004267;28;19956;-60
2022/10/07 08:25:58;;;;;;;;;;;;;;;18.98;51.37;102296.31;5003859;28;19979;-60
2022/10/07 08:28:24;;;;;;;;;;;;;;;19.00;51.55;102301.59;5003830;28;20383;-60
2022/10/07 08:30:49;;;;;;;;;;;;;;;19.05;51.26;102291.25;5003186;28;19941;-62
2022/10/07 08:33:15;;;;;;;;;;;;;;;19.11;51.38;102289.84;5003691;28;19913;-60
2022/10/07 08:35:40;;;;;;;;;;;;;;;19.18;51.40;102285.63;5003309;28;19916;-61
2022/10/07 08:38:05;;;;;;;;;;;;;;;19.23;51.09;102278.81;4994813;28;20371;-60
2022/10/07 08:40:31;;;;;;;;;;;;;;;19.31;51.29;102278.16;5016660;28;20401;-59
2022/10/07 08:42:56;;;;;;;;;;;;;;;19.38;51.12;102276.59;5017827;28;19910;-60
2022/10/07 08:45:28;;;;;;;;;;;;;;;19.45;50.97;102280.47;5003060;28;19916;-60
2022/10/07 08:47:53;;;;;;;;;;;;;;;19.52;50.55;102279.91;5004694;28;19948;-60
2022/10/07 08:50:20;;;;;;;;;;;;;;;19.57;50.37;102270.38;5010975;28;19913;-61
2022/10/07 08:52:45;;;;;;;;;;;;;;;19.62;50.32;102275.38;5011714;28;19956;-61
2022/10/07 08:55:29;;;;;;;;;;;;;;;19.66;50.52;102274.13;5004797;28;19909;-59
2022/10/07 08:58:07;;;;;;;;;;;;;;;19.71;50.31;102278.13;4999363;28;19936;-62
2022/10/07 09:00:35;;;;;;;;;;;;;;;19.78;50.28;102273.00;5004528;28;19914;-60
2022/10/07 09:03:24;;;;;;;;;;;;;;;19.81;50.04;102271.88;5008184;28;19917;-60
2022/10/07 09:05:49;;;;;;;;;;;;;;;19.85;49.87;102268.75;5015547;28;19910;-61
2022/10/07 09:08:17;;;;;;;;;;;;;;;19.90;49.92;102263.78;5015876;28;19909;-60
2022/10/07 09:10:47;;;;;;;;;;;;;;;19.95;49.49;102258.78;5021361;28;19972;-61
2022/10/07 09:13:15;;;;;;;;;;;;;;;19.98;49.42;102255.81;5009470;28;19917;-60
2022/10/07 09:15:40;;;;;;;;;;;;;;;20.03;49.50;102263.47;5021899;28;19972;-61
2022/10/07 09:18:14;;;;;;;;;;;;;;;20.07;49.47;102251.41;5023306;28;19917;-60
2022/10/07 09:20:41;;;;;;;;;;;;;;;20.11;49.39;102251.97;5013726;28;20602;-60
2022/10/07 09:23:08;;;;;;;;;;;;;;;20.14;49.12;102254.38;5001025;28;19945;-59
2022/10/07 09:25:34;;;;;;;;;;;;;;;20.15;49.11;102243.44;5014865;28;19909;-60
2022/10/07 09:27:59;;;;;;;;;;;;;;;20.18;49.19;102242.31;5022303;28;19913;-62
2022/10/07 09:30:26;;;;;;;;;;;;;;;20.22;48.98;102243.72;5021969;28;19921;-60
2022/10/07 09:32:55;;;;;;;;;;;;;;;20.25;49.16;102247.97;5022206;28;19929;-60
2022/10/07 09:35:21;;;;;;;;;;;;;;;20.25;49.30;102245.25;5023173;28;19996;-61
2022/10/07 09:37:56;;;;;;;;;;;;;;;20.25;48.99;102239.84;5021745;28;19924;-60
2022/10/07 09:40:33;;;;;;;;;;;;;;;20.25;49.25;102237.16;5026682;28;19925;-60
2022/10/07 09:42:58;;;;;;;;;;;;;;;20.24;49.31;102230.91;5027591;28;19941;-60
2022/10/07 09:45:30;;;;;;;;;;;;;;;20.25;49.16;102237.16;5027378;28;19917;-60
2022/10/07 09:47:55;;;;;;;;;;;;;;;20.24;48.98;102225.50;5010003;28;19932;-60
2022/10/07 09:50:30;;;;;;;;;;;;;;;20.26;48.93;102222.66;5009448;28;20362;-60
2022/10/07 09:52:55;;;;;;;;;;;;;;;20.26;49.00;102222.66;5027032;28;19980;-60
2022/10/07 09:55:38;;;;;;;;;;;;;;;20.25;48.96;102219.09;5027347;28;19909;-60
2022/10/07 09:58:04;;;;;;;;;;;;;;;20.26;48.90;102211.84;5026971;28;19913;-60
2022/10/07 10:00:29;;;;;;;;;;;;;;;20.27;48.86;102217.13;5026661;28;19919;-60
2022/10/07 10:03:04;;;;;;;;;;;;;;;20.30;48.87;102218.66;5026571;28;19952;-60
2022/10/07 10:05:30;;;;;;;;;;;;;;;20.30;48.94;102215.97;5007010;28;19909;-60
2022/10/07 10:08:03;;;;;;;;;;;;;;;20.29;48.81;102211.56;5009109;28;19910;-60
2022/10/07 10:10:30;;;;;;;;;;;;;;;20.28;48.95;102204.47;5026396;28;19913;-61
2022/10/07 10:12:55;;;;;;;;;;;;;;;20.27;49.24;102210.88;5026902;28;19909;-60
2022/10/07 10:15:26;;;;;;;;;;;;;;;20.02;49.45;102170.00;5026969;28;19915;-59
2022/10/07 10:17:51;;;;;;;;;;;;;;;20.24;49.29;102209.31;5026903;28;19910;-60
2022/10/07 10:20:22;;;;;;;;;;;;;;;20.23;49.51;102197.66;5022067;28;19910;-60
2022/10/07 10:22:48;;;;;;;;;;;;;;;20.25;49.24;102208.28;5026406;28;19917;-60
2022/10/07 10:27:57;;;;;;;;;;;;;;;20.24;49.35;102190.41;5026171;28;20412;-60
2022/10/07 10:30:22;;;;;;;;;;;;;;;20.25;49.48;102196.66;5025981;28;19917;-60
2022/10/07 10:33:06;;;;;;;;;;;;;;;20.24;49.55;102198.50;5008412;28;19913;-60
2022/10/07 10:35:33;;;;;;;;;;;;;;;20.23;49.33;102192.25;5025710;28;19960;-60
2022/10/07 10:38:14;;;;;;;;;;;;;;;20.23;49.46;102186.84;5025767;28;19913;-60
2022/10/07 10:40:40;;;;;;;;;;;;;;;20.23;49.50;102178.75;5022158;28;19940;-60
2022/10/07 10:43:20;;;;;;;;;;;;;;;20.24;49.58;102182.28;5026017;28;19977;-60
2022/10/07 10:46:06;;;;;;;;;;;;;;;20.25;49.80;102169.63;5007128;28;19910;-60
2022/10/07 10:48:34;;;;;;;;;;;;;;;20.25;49.45;102166.94;5007456;28;19909;-60
2022/10/07 10:51:12;;;;;;;;;;;;;;;20.25;49.58;102164.25;5025309;28;19917;-60
2022/10/07 10:53:43;;;;;;;;;;;;;;;20.23;49.78;102153.59;5023497;28;19971;-60
2022/10/07 10:56:15;;;;;;;;;;;;;;;20.22;49.74;102158.16;5025479;28;19916;-61
2022/10/07 10:58:53;;;;;;;;;;;;;;;20.21;49.79;102145.63;5005841;28;19936;-60
2022/10/07 11:01:29;;;;;;;;;;;;;;;20.18;50.05;102137.84;5005800;28;19956;-60
2022/10/07 11:04:01;;;;;;;;;;;;;;;20.19;50.05;102141.38;5005197;28;19909;-61
2022/10/07 11:06:27;;;;;;;;;;;;;;;20.16;50.30;102142.50;5025200;28;19928;-61
2022/10/07 11:08:53;;;;;;;;;;;;;;;20.17;50.20;102140.66;5007790;28;19916;-60
2022/10/07 11:11:19;;;;;;;;;;;;;;;20.17;50.31;102132.56;5007885;28;19913;-61
2022/10/07 11:13:54;;;;;;;;;;;;;;;20.17;50.56;102137.97;5007839;28;19913;-60
2022/10/07 11:16:24;;;;;;;;;;;;;;;20.19;50.15;102130.59;5025058;28;19909;-60
2022/10/07 11:18:57;;;;;;;;;;;;;;;20.21;50.38;102123.16;5040512;28;19913;-61
2022/10/07 11:21:33;;;;;;;;;;;;;;;20.23;50.41;102111.22;5025340;28;19909;-60
2022/10/07 11:24:09;;;;;;;;;;;;;;;20.23;50.26;102105.84;5040700;28;19909;-60
2022/10/07 11:26:36;;;;;;;;;;;;;;;20.23;50.39;102105.84;5025063;28;19909;-60
2022/10/07 11:29:03;;;;;;;;;;;;;;;20.24;50.33;102101.28;5038446;28;19913;-60
2022/10/07 11:31:31;;;;;;;;;;;;;;;20.23;50.51;102096.88;5025109;28;19941;-60
2022/10/07 11:34:15;;;;;;;;;;;;;;;20.22;50.58;102090.63;5025322;28;19931;-60
2022/10/07 11:36:46;;;;;;;;;;;;;;;20.22;50.80;102087.94;5025261;28;19940;-60
2022/10/07 11:39:11;;;;;;;;;;;;;;;20.22;50.62;102085.22;5007234;28;19917;-60
2022/10/07 11:41:55;;;;;;;;;;;;;;;20.23;50.91;102080.69;5024691;28;19932;-60
2022/10/07 11:44:25;;;;;;;;;;;;;;;20.21;50.67;102078.09;5025577;28;19913;-60
2022/10/07 11:46:50;;;;;;;;;;;;;;;20.22;50.93;102069.03;5007573;28;20505;-60
2022/10/07 11:49:18;;;;;;;;;;;;;;;20.21;50.89;102063.75;5024991;28;19910;-60
2022/10/07 11:51:44;;;;;;;;;;;;;;;20.22;50.88;102057.38;5024707;28;20004;-60
2022/10/07 11:54:11;;;;;;;;;;;;;;;20.22;51.12;102051.97;5024921;28;19909;-60
2022/10/07 11:56:37;;;;;;;;;;;;;;;20.22;51.07;102043.88;5006885;28;19913;-60
2022/10/07 11:59:03;;;;;;;;;;;;;;;20.24;51.02;102047.25;5006925;28;20474;-60
2022/10/07 12:01:39;;;;;;;;;;;;;;;20.23;51.28;102038.31;5006572;28;19920;-60
2022/10/07 12:04:10;;;;;;;;;;;;;;;20.25;51.10;102040.84;5024964;28;19917;-60
2022/10/07 12:06:35;;;;;;;;;;;;;;;20.27;51.08;102035.31;5024715;28;19916;-60
2022/10/07 12:09:20;;;;;;;;;;;;;;;20.28;51.14;102032.47;5006986;28;19910;-60
2022/10/07 12:11:46;;;;;;;;;;;;;;;20.30;51.21;102033.16;5023899;28;19921;-60
2022/10/07 12:14:30;;;;;;;;;;;;;;;20.30;51.21;102022.34;5024861;28;19916;-60
2022/10/07 12:16:55;;;;;;;;;;;;;;;20.31;51.12;102018.66;5024404;28;19909;-60
2022/10/07 12:19:21;;;;;;;;;;;;;;;20.33;51.11;102018.50;5024370;28;19913;-60
2022/10/07 12:21:58;;;;;;;;;;;;;;;20.33;51.31;102010.41;5024396;28;19948;-60
2022/10/07 12:24:24;;;;;;;;;;;;;;;20.35;51.11;102009.25;5024282;28;20378;-60
2022/10/07 12:26:50;;;;;;;;;;;;;;;20.38;51.10;102000.84;5024229;28;19916;-61
2022/10/07 12:29:22;;;;;;;;;;;;;;;20.40;51.25;101993.44;5023854;28;19936;-60
2022/10/07 12:31:48;;;;;;;;;;;;;;;20.42;50.88;101996.81;5006653;28;19973;-60
2022/10/07 12:34:32;;;;;;;;;;;;;;;20.43;50.90;101985.03;5006710;28;19916;-60
2022/10/07 12:37:16;;;;;;;;;;;;;;;20.44;50.98;101986.72;5023940;28;20289;-60
2022/10/07 12:39:41;;;;;;;;;;;;;;;20.46;51.10;101983.88;5018628;28;19936;-60
2022/10/07 12:42:06;;;;;;;;;;;;;;;20.46;51.09;101964.97;4987104;28;19909;-60
2022/10/07 12:44:32;;;;;;;;;;;;;;;20.49;50.84;101964.69;4987239;28;19934;-60
2022/10/07 12:46:59;;;;;;;;;;;;;;;20.50;50.88;101958.28;4987168;28;19909;-60